createdAt,value
2022-12-09T00:01:19.392Z,20.63
2022-12-09T00:03:48.228Z,17.67
2022-12-09T00:06:20.822Z,18.98
2022-12-09T00:08:49.022Z,19.20
2022-12-09T00:11:17.624Z,21.13
2022-12-09T00:13:45.354Z,17.83
2022-12-09T00:16:15.204Z,20.05
2022-12-09T00:18:43.794Z,20.23
2022-12-09T00:21:20.478Z,19.67
2022-12-09T00:23:49.501Z,19.40
2022-12-09T00:26:18.823Z,19.10
2022-12-09T00:28:46.734Z,22.45
2022-12-09T00:31:16.268Z,16.40
2022-12-09T00:33:44.169Z,22.20
2022-12-09T00:36:14.486Z,21.52
2022-12-09T00:38:42.580Z,20.27
2022-12-09T00:41:10.924Z,19.48
2022-12-09T00:43:38.703Z,18.73
2022-12-09T00:46:07.002Z,17.60
2022-12-09T00:48:34.881Z,18.27
2022-12-09T00:51:03.297Z,16.25
2022-12-09T00:53:31.026Z,18.13
2022-12-09T00:55:58.717Z,17.30
2022-12-09T00:58:26.443Z,14.82
2022-12-09T01:00:54.785Z,14.43
2022-12-09T01:03:22.839Z,15.07
2022-12-09T01:05:50.546Z,15.27
2022-12-09T01:08:18.669Z,16.23
2022-12-09T01:10:47.019Z,16.23
2022-12-09T01:13:16.376Z,16.75
2022-12-09T01:15:44.613Z,20.15
2022-12-09T01:18:13.073Z,17.27
2022-12-09T01:20:41.027Z,18.45
2022-12-09T01:23:08.840Z,18.40
2022-12-09T01:25:39.459Z,19.70
2022-12-09T01:28:07.311Z,17.95
2022-12-09T01:30:34.930Z,17.63
2022-12-09T01:33:02.530Z,18.98
2022-12-09T01:35:30.125Z,19.25
2022-12-09T01:37:57.915Z,18.45
2022-12-09T01:40:25.749Z,19.02
2022-12-09T01:42:53.331Z,15.63
2022-12-09T01:45:20.881Z,17.38
2022-12-09T01:48:15.520Z,18.80
2022-12-09T01:50:46.290Z,18.20
2022-12-09T01:53:15.640Z,18.30
2022-12-09T01:55:43.828Z,18.67
2022-12-09T01:58:11.533Z,14.80
2022-12-09T02:00:39.357Z,18.13
2022-12-09T02:03:07.757Z,16.90
2022-12-09T02:05:36.442Z,16.77
2022-12-09T02:08:08.075Z,16.17
2022-12-09T02:10:41.040Z,19.90
2022-12-09T02:13:27.433Z,12.13
2022-12-09T02:15:58.960Z,14.70
2022-12-09T02:18:43.616Z,15.80
2022-12-09T02:21:19.408Z,14.15
2022-12-09T02:24:14.252Z,15.95
2022-12-09T02:27:04.510Z,16.15
2022-12-09T02:29:32.040Z,14.60
2022-12-09T02:32:16.443Z,16.90
2022-12-09T02:34:52.490Z,17.45
2022-12-09T02:37:32.855Z,15.80
2022-12-09T02:40:06.944Z,15.82
2022-12-09T02:42:37.323Z,17.08
2022-12-09T02:45:08.815Z,13.85
2022-12-09T02:47:42.050Z,15.38
2022-12-09T02:50:14.683Z,15.90
2022-12-09T02:55:14.243Z,14.70
2022-12-09T02:57:41.939Z,14.90
2022-12-09T03:00:11.739Z,13.85
2022-12-09T03:02:44.882Z,15.23
2022-12-09T03:05:34.288Z,16.45
2022-12-09T03:08:20.529Z,14.95
2022-12-09T03:10:59.862Z,15.45
2022-12-09T03:13:37.741Z,14.07
2022-12-09T03:16:35.380Z,15.55
2022-12-09T03:19:19.833Z,15.02
2022-12-09T03:21:50.073Z,16.40
2022-12-09T03:24:22.746Z,16.63
2022-12-09T03:26:52.008Z,18.85
2022-12-09T03:29:24.398Z,14.90
2022-12-09T03:31:54.115Z,15.85
2022-12-09T03:34:26.775Z,16.05
2022-12-09T03:36:55.190Z,16.30
2022-12-09T03:39:30.131Z,17.15
2022-12-09T03:42:02.477Z,17.30
2022-12-09T03:44:39.115Z,18.05
2022-12-09T03:47:08.542Z,16.23
2022-12-09T03:49:37.832Z,15.93
2022-12-09T03:52:18.348Z,18.92
2022-12-09T03:54:48.548Z,16.38
2022-12-09T03:57:19.955Z,14.30
2022-12-09T04:00:02.142Z,14.60
2022-12-09T04:02:30.368Z,10.30
2022-12-09T04:04:58.153Z,14.23
2022-12-09T04:07:25.780Z,13.40
2022-12-09T04:09:53.472Z,13.55
2022-12-09T04:12:21.198Z,13.82
2022-12-09T04:14:49.103Z,15.68
2022-12-09T04:17:17.214Z,15.18
2022-12-09T04:19:45.083Z,13.55
2022-12-09T04:22:12.788Z,13.05
2022-12-09T04:24:40.547Z,14.85
2022-12-09T04:27:08.531Z,14.80
2022-12-09T04:29:36.441Z,14.70
2022-12-09T04:32:04.465Z,13.85
2022-12-09T04:34:34.194Z,14.65
2022-12-09T04:37:01.790Z,13.35
2022-12-09T04:39:29.267Z,13.88
2022-12-09T04:41:56.855Z,14.25
2022-12-09T04:44:24.467Z,15.73
2022-12-09T04:46:52.083Z,15.20
2022-12-09T04:49:19.861Z,16.08
2022-12-09T04:51:47.763Z,13.02
2022-12-09T04:54:15.473Z,17.20
2022-12-09T04:56:43.728Z,16.10
2022-12-09T04:59:11.372Z,16.15
2022-12-09T05:01:39.434Z,15.73
2022-12-09T05:04:07.995Z,14.93
2022-12-09T05:06:35.934Z,15.48
2022-12-09T05:09:04.769Z,16.25
2022-12-09T05:11:33.008Z,16.35
2022-12-09T05:14:00.729Z,18.77
2022-12-09T05:16:28.850Z,18.48
2022-12-09T05:18:57.040Z,17.98
2022-12-09T05:21:24.827Z,17.15
2022-12-09T05:23:52.962Z,16.30
2022-12-09T05:26:23.460Z,17.77
2022-12-09T05:28:52.441Z,19.00
2022-12-09T05:31:22.940Z,17.02
2022-12-09T05:33:52.460Z,18.38
2022-12-09T05:36:24.313Z,17.65
2022-12-09T05:38:52.894Z,18.85
2022-12-09T05:41:21.031Z,16.83
2022-12-09T05:43:48.976Z,18.65
2022-12-09T05:46:17.515Z,17.88
2022-12-09T05:48:46.791Z,17.98
2022-12-09T05:51:27.209Z,17.25
2022-12-09T05:53:55.802Z,17.92
2022-12-09T05:56:25.979Z,18.88
2022-12-09T05:58:55.630Z,19.38
2022-12-09T06:01:24.326Z,19.73
2022-12-09T06:03:54.247Z,21.13
2022-12-09T06:06:26.562Z,20.30
2022-12-09T06:09:00.555Z,17.80
2022-12-09T06:11:29.122Z,19.20
2022-12-09T06:13:57.159Z,18.13
2022-12-09T06:16:26.095Z,18.80
2022-12-09T06:18:54.353Z,17.67
2022-12-09T06:21:23.676Z,19.75
2022-12-09T06:23:52.235Z,20.65
2022-12-09T06:26:23.980Z,18.48
2022-12-09T06:28:52.915Z,19.17
2022-12-09T06:31:21.446Z,19.60
2022-12-09T06:33:55.513Z,17.63
2022-12-09T06:36:25.537Z,18.60
2022-12-09T06:38:53.982Z,18.45
2022-12-09T06:41:21.954Z,18.52
2022-12-09T06:43:50.135Z,18.83
2022-12-09T06:46:23.358Z,19.13
2022-12-09T06:48:51.978Z,21.80
2022-12-09T06:51:20.366Z,19.67
2022-12-09T06:53:48.869Z,20.92
2022-12-09T06:56:18.573Z,20.15
2022-12-09T06:58:47.696Z,18.73
2022-12-09T07:01:25.164Z,20.95
2022-12-09T07:03:56.219Z,20.13
2022-12-09T07:06:42.669Z,20.30
2022-12-09T07:09:15.598Z,22.50
2022-12-09T07:11:46.342Z,21.08
2022-12-09T07:14:16.145Z,23.40
2022-12-09T07:16:44.454Z,23.08
2022-12-09T07:19:24.734Z,22.63
2022-12-09T07:21:53.257Z,23.55
2022-12-09T07:24:21.317Z,21.45
2022-12-09T07:26:49.343Z,22.85
2022-12-09T07:29:17.847Z,25.80
2022-12-09T07:31:47.673Z,31.15
2022-12-09T07:34:16.045Z,32.28
2022-12-09T07:36:44.084Z,36.33
2022-12-09T07:39:17.273Z,38.55
2022-12-09T07:41:45.560Z,33.70
2022-12-09T07:44:13.572Z,39.47
2022-12-09T07:46:41.956Z,36.60
2022-12-09T07:49:12.119Z,35.83
2022-12-09T07:51:40.177Z,34.70
2022-12-09T07:54:08.092Z,35.78
2022-12-09T07:56:35.823Z,34.40
2022-12-09T07:59:07.876Z,32.35
2022-12-09T08:01:36.444Z,31.40
2022-12-09T08:04:06.638Z,32.55
2022-12-09T08:06:35.710Z,28.83
2022-12-09T08:09:07.465Z,31.50
2022-12-09T08:11:36.145Z,28.92
2022-12-09T08:14:12.322Z,29.95
2022-12-09T08:16:41.962Z,29.15
2022-12-09T08:19:10.338Z,25.02
2022-12-09T08:21:39.019Z,26.77
2022-12-09T08:24:07.796Z,29.27
2022-12-09T08:26:37.566Z,26.30
2022-12-09T08:29:09.116Z,25.17
2022-12-09T08:31:41.724Z,24.20
2022-12-09T08:34:10.261Z,29.77
2022-12-09T08:36:39.176Z,25.23
2022-12-09T08:39:07.851Z,26.33
2022-12-09T08:41:38.427Z,27.83
2022-12-09T08:44:11.160Z,28.48
2022-12-09T08:46:41.760Z,25.10
2022-12-09T08:49:10.261Z,24.70
2022-12-09T08:51:38.923Z,25.13
2022-12-09T08:54:07.158Z,25.48
2022-12-09T08:56:35.401Z,25.92
2022-12-09T08:59:03.998Z,22.88
2022-12-09T09:01:35.597Z,23.00
2022-12-09T09:04:09.814Z,25.92
2022-12-09T09:06:39.783Z,25.73
2022-12-09T09:09:09.881Z,28.40
2022-12-09T09:11:38.523Z,27.02
2022-12-09T09:14:07.696Z,26.50
2022-12-09T09:16:36.459Z,26.30
2022-12-09T09:19:06.736Z,26.02
2022-12-09T09:21:35.609Z,24.83
2022-12-09T09:24:08.693Z,23.50
2022-12-09T09:26:36.870Z,25.70
2022-12-09T09:29:04.780Z,28.50
2022-12-09T09:31:32.698Z,26.63
2022-12-09T09:34:00.994Z,25.63
2022-12-09T09:36:28.993Z,23.63
2022-12-09T09:38:58.799Z,25.25
2022-12-09T09:41:45.466Z,25.10
2022-12-09T09:44:31.754Z,22.58
2022-12-09T09:47:02.091Z,27.23
2022-12-09T09:49:56.390Z,22.60
2022-12-09T09:52:27.467Z,22.10
2022-12-09T09:54:55.558Z,21.17
2022-12-09T09:57:26.942Z,23.08
2022-12-09T10:00:23.704Z,22.83
2022-12-09T10:02:55.863Z,22.08
2022-12-09T10:05:26.678Z,19.35
2022-12-09T10:08:05.128Z,21.35
2022-12-09T10:10:33.452Z,23.58
2022-12-09T10:13:23.015Z,26.15
2022-12-09T10:16:07.530Z,25.83
2022-12-09T10:18:42.473Z,25.67
2022-12-09T10:21:21.707Z,23.80
2022-12-09T10:23:50.810Z,23.02
2022-12-09T10:26:30.521Z,24.67
2022-12-09T10:29:45.210Z,23.48
2022-12-09T10:32:20.523Z,23.10
2022-12-09T10:34:49.687Z,20.98
2022-12-09T10:37:43.898Z,22.38
2022-12-09T10:40:12.470Z,21.65
2022-12-09T10:43:13.745Z,20.77
2022-12-09T10:46:17.368Z,21.15
2022-12-09T10:48:56.305Z,23.55
2022-12-09T10:51:28.949Z,24.10
2022-12-09T10:54:01.168Z,21.73
2022-12-09T10:59:23.286Z,20.63
2022-12-09T11:01:57.137Z,17.85
2022-12-09T11:04:29.425Z,21.70
2022-12-09T11:07:06.250Z,19.83
2022-12-09T11:09:38.636Z,22.77
2022-12-09T11:12:15.980Z,23.10
2022-12-09T11:14:53.526Z,22.17
2022-12-09T11:17:26.028Z,20.40
2022-12-09T11:19:57.604Z,18.58
2022-12-09T11:22:31.848Z,19.70
2022-12-09T11:25:13.244Z,18.80
2022-12-09T11:27:55.402Z,19.60
2022-12-09T11:30:27.053Z,16.42
2022-12-09T11:33:07.914Z,19.58
2022-12-09T11:35:51.769Z,18.80
2022-12-09T11:38:31.769Z,20.27
2022-12-09T11:41:05.483Z,21.23
2022-12-09T11:43:36.721Z,18.08
2022-12-09T11:46:16.137Z,18.35
2022-12-09T11:48:53.434Z,18.92
2022-12-09T11:51:25.958Z,18.38
2022-12-09T11:54:03.289Z,21.23
2022-12-09T11:56:32.028Z,21.13
2022-12-09T11:59:15.329Z,20.23
2022-12-09T12:01:53.373Z,18.77
2022-12-09T12:04:49.496Z,18.10
2022-12-09T12:07:33.843Z,17.45
2022-12-09T12:10:03.669Z,19.95
2022-12-09T12:12:37.405Z,21.80
2022-12-09T12:15:19.564Z,20.20
2022-12-09T12:17:57.697Z,20.17
2022-12-09T12:21:09.983Z,22.33
2022-12-09T12:23:58.379Z,22.60
2022-12-09T12:26:52.379Z,21.58
2022-12-09T12:29:35.069Z,23.17
2022-12-09T12:32:09.414Z,19.98
2022-12-09T12:34:55.753Z,21.90
2022-12-09T12:38:04.766Z,20.08
2022-12-09T12:41:10.987Z,19.40
2022-12-09T12:44:28.619Z,21.23
2022-12-09T12:47:31.098Z,20.75
2022-12-09T12:50:07.913Z,19.77
2022-12-09T12:53:00.718Z,22.65
2022-12-09T12:55:55.992Z,17.92
2022-12-09T12:58:32.598Z,16.58
2022-12-09T13:01:14.512Z,19.52
2022-12-09T13:04:08.922Z,19.50
2022-12-09T13:07:29.688Z,20.52
2022-12-09T13:10:17.628Z,19.55
2022-12-09T13:13:09.605Z,18.85
2022-12-09T13:15:58.102Z,19.53
2022-12-09T13:18:40.928Z,18.88
2022-12-09T13:24:45.294Z,18.63
2022-12-09T13:27:40.891Z,18.90
2022-12-09T13:30:39.376Z,21.02
2022-12-09T13:33:30.107Z,18.90
2022-12-09T13:36:59.285Z,20.10
2022-12-09T13:39:42.320Z,19.77
2022-12-09T13:42:53.488Z,19.00
2022-12-09T13:45:35.074Z,19.92
2022-12-09T13:48:24.551Z,19.23
2022-12-09T13:50:54.269Z,20.70
2022-12-09T13:53:21.758Z,19.02
2022-12-09T13:56:03.263Z,20.13
2022-12-09T13:58:39.750Z,19.20
2022-12-09T14:01:13.072Z,20.30
2022-12-09T14:03:55.573Z,19.52
2022-12-09T14:06:30.134Z,20.70
2022-12-09T14:09:03.984Z,21.25
2022-12-09T14:11:43.650Z,24.45
2022-12-09T14:14:26.486Z,21.15
2022-12-09T14:16:59.496Z,22.33
2022-12-09T14:19:27.136Z,21.05
2022-12-09T14:22:19.845Z,23.42
2022-12-09T14:24:58.234Z,22.15
2022-12-09T14:27:27.217Z,22.15
2022-12-09T14:30:24.913Z,24.88
2022-12-09T14:32:55.214Z,22.85
2022-12-09T14:35:55.155Z,23.00
2022-12-09T14:39:22.555Z,23.02
2022-12-09T14:41:55.872Z,23.38
2022-12-09T14:44:23.435Z,23.55
2022-12-09T14:46:54.597Z,23.67
2022-12-09T14:49:29.880Z,26.08
2022-12-09T14:52:04.150Z,22.90
2022-12-09T14:54:44.397Z,24.77
2022-12-09T14:57:25.826Z,23.40
2022-12-09T14:59:57.126Z,23.52
2022-12-09T15:02:32.901Z,25.05
2022-12-09T15:05:03.167Z,23.35
2022-12-09T15:07:35.347Z,24.73
2022-12-09T15:10:08.603Z,24.70
2022-12-09T15:12:39.787Z,27.05
2022-12-09T15:15:16.571Z,25.40
2022-12-09T15:17:47.404Z,23.92
2022-12-09T15:20:25.946Z,28.20
2022-12-09T15:23:00.070Z,30.30
2022-12-09T15:25:28.623Z,27.17
2022-12-09T15:28:13.709Z,27.25
2022-12-09T15:30:41.642Z,27.55
2022-12-09T15:33:20.996Z,29.35
2022-12-09T15:36:00.319Z,25.30
2022-12-09T15:38:37.359Z,26.80
2022-12-09T15:41:27.588Z,24.92
2022-12-09T15:43:59.145Z,27.85
2022-12-09T15:46:28.663Z,23.53
2022-12-09T15:48:59.596Z,28.52
2022-12-09T15:51:29.705Z,30.33
2022-12-09T15:54:06.193Z,30.55
2022-12-09T15:56:48.693Z,28.25
2022-12-09T15:59:24.853Z,27.83
2022-12-09T16:01:56.846Z,31.10
2022-12-09T16:04:29.481Z,30.30
2022-12-09T16:06:58.418Z,29.50
2022-12-09T16:09:27.159Z,30.80
2022-12-09T16:11:56.583Z,33.22
2022-12-09T16:14:25.798Z,32.67
2022-12-09T16:17:00.612Z,33.55
2022-12-09T16:19:34.316Z,33.97
2022-12-09T16:22:30.041Z,30.65
2022-12-09T16:25:16.035Z,29.92
2022-12-09T16:27:49.937Z,32.50
2022-12-09T16:30:22.004Z,30.48
2022-12-09T16:32:54.487Z,31.08
2022-12-09T16:38:22.884Z,31.85
2022-12-09T16:40:50.968Z,28.80
2022-12-09T16:43:19.150Z,31.17
2022-12-09T16:45:51.656Z,28.13
2022-12-09T16:48:21.432Z,32.75
2022-12-09T16:51:07.542Z,31.45
2022-12-09T16:53:41.131Z,30.92
2022-12-09T16:56:20.664Z,32.40
2022-12-09T16:58:48.846Z,28.85
2022-12-09T17:01:19.682Z,28.70
2022-12-09T17:03:53.889Z,30.00
2022-12-09T17:06:22.268Z,30.08
2022-12-09T17:08:50.746Z,33.13
2022-12-09T17:11:21.695Z,31.15
2022-12-09T17:13:52.739Z,30.15
2022-12-09T17:16:22.295Z,33.30
2022-12-09T17:18:50.476Z,30.85
2022-12-09T17:21:18.603Z,29.67
2022-12-09T17:23:46.293Z,30.15
2022-12-09T17:26:16.079Z,32.25
2022-12-09T17:28:45.048Z,31.27
2022-12-09T17:31:15.815Z,32.17
2022-12-09T17:33:44.643Z,28.90
2022-12-09T17:36:14.081Z,31.77
2022-12-09T17:38:42.456Z,31.15
2022-12-09T17:41:14.764Z,32.75
2022-12-09T17:43:43.111Z,32.35
2022-12-09T17:46:11.672Z,31.27
2022-12-09T17:48:40.195Z,33.03
2022-12-09T17:51:12.686Z,34.00
2022-12-09T17:56:10.499Z,34.83
2022-12-09T17:58:38.225Z,34.03
2022-12-09T18:01:06.629Z,34.05
2022-12-09T18:03:54.790Z,32.85
2022-12-09T18:06:21.798Z,35.40
2022-12-09T18:08:49.388Z,36.20
2022-12-09T18:11:17.148Z,37.63
2022-12-09T18:13:44.720Z,39.85
2022-12-09T18:16:13.824Z,35.50
2022-12-09T18:18:42.948Z,35.75
2022-12-09T18:21:15.547Z,35.83
2022-12-09T18:23:43.692Z,36.22
2022-12-09T18:26:15.142Z,35.80
2022-12-09T18:28:43.541Z,31.47
2022-12-09T18:31:15.474Z,42.05
2022-12-09T18:33:44.619Z,36.13
2022-12-09T18:36:15.876Z,35.20
2022-12-09T18:38:44.665Z,37.30
2022-12-09T18:41:25.101Z,36.05
2022-12-09T18:43:55.336Z,39.30
2022-12-09T18:46:26.292Z,39.00
2022-12-09T18:49:08.875Z,39.65
2022-12-09T18:51:37.462Z,36.13
2022-12-09T18:54:06.862Z,34.40
2022-12-09T18:56:36.193Z,32.70
2022-12-09T18:59:07.125Z,38.05
2022-12-09T19:01:39.623Z,27.73
2022-12-09T19:04:10.009Z,38.35
2022-12-09T19:06:40.242Z,40.50
2022-12-09T19:09:16.914Z,38.63
2022-12-09T19:11:46.440Z,37.90
2022-12-09T19:14:15.527Z,36.67
2022-12-09T19:16:44.601Z,35.08
2022-12-09T19:19:18.103Z,37.50
2022-12-09T19:21:47.196Z,38.80
2022-12-09T19:24:18.140Z,34.30
2022-12-09T19:26:46.532Z,35.63
2022-12-09T19:29:16.147Z,36.17
2022-12-09T19:31:46.965Z,34.30
2022-12-09T19:34:23.846Z,35.50
2022-12-09T19:36:53.652Z,34.25
2022-12-09T19:39:24.491Z,35.13
2022-12-09T19:41:52.987Z,34.75
2022-12-09T19:44:44.488Z,36.35
2022-12-09T19:47:10.948Z,34.05
2022-12-09T19:49:41.568Z,35.20
2022-12-09T19:52:09.642Z,35.78
2022-12-09T19:54:37.712Z,36.50
2022-12-09T19:57:05.683Z,36.55
2022-12-09T19:59:35.539Z,35.58
2022-12-09T20:02:03.501Z,38.05
2022-12-09T20:04:49.598Z,34.40
2022-12-09T20:07:18.754Z,38.25
2022-12-09T20:09:46.836Z,34.85
2022-12-09T20:12:15.004Z,35.92
2022-12-09T20:14:43.377Z,34.67
2022-12-09T20:17:11.574Z,35.28
2022-12-09T20:19:39.734Z,36.08
2022-12-09T20:22:07.798Z,36.15
2022-12-09T20:24:36.008Z,37.53
2022-12-09T20:27:03.954Z,33.22
2022-12-09T20:29:37.272Z,36.20
2022-12-09T20:32:05.719Z,37.17
2022-12-09T20:34:33.720Z,33.42
2022-12-09T20:37:01.870Z,33.55
2022-12-09T20:39:29.971Z,34.45
2022-12-09T20:41:59.454Z,33.95
2022-12-09T20:44:27.431Z,35.13
2022-12-09T20:46:55.498Z,33.33
2022-12-09T20:49:26.769Z,35.30
2022-12-09T20:51:56.042Z,25.95
2022-12-09T20:54:24.579Z,32.30
2022-12-09T20:56:53.229Z,33.08
2022-12-09T20:59:21.384Z,31.13
2022-12-09T21:01:49.453Z,31.88
2022-12-09T21:04:18.034Z,31.20
2022-12-09T21:06:45.627Z,29.40
2022-12-09T21:09:19.976Z,29.38
2022-12-09T21:11:48.880Z,29.23
2022-12-09T21:14:19.182Z,30.75
2022-12-09T21:16:50.228Z,29.45
2022-12-09T21:19:25.164Z,28.35
2022-12-09T21:21:53.539Z,29.80
2022-12-09T21:24:23.148Z,30.40
2022-12-09T21:26:53.106Z,29.95
2022-12-09T21:29:22.301Z,27.02
2022-12-09T21:31:54.330Z,29.90
2022-12-09T21:34:24.184Z,25.20
2022-12-09T21:36:52.116Z,30.27
2022-12-09T21:39:20.370Z,28.25
2022-12-09T21:41:48.066Z,28.77
2022-12-09T21:44:19.035Z,30.23
2022-12-09T21:46:47.147Z,29.70
2022-12-09T21:49:15.503Z,30.15
2022-12-09T21:51:44.059Z,27.52
2022-12-09T21:54:11.757Z,28.50
2022-12-09T21:56:39.361Z,27.45
2022-12-09T21:59:08.243Z,28.63
2022-12-09T22:01:38.859Z,24.63
2022-12-09T22:04:08.297Z,26.15
2022-12-09T22:06:35.957Z,26.08
2022-12-09T22:09:04.730Z,26.38
2022-12-09T22:11:36.325Z,27.52
2022-12-09T22:14:04.564Z,27.07
2022-12-09T22:16:36.174Z,27.13
2022-12-09T22:19:08.047Z,27.35
2022-12-09T22:21:37.395Z,25.15
2022-12-09T22:24:07.620Z,28.63
2022-12-09T22:26:35.219Z,25.08
2022-12-09T22:29:04.370Z,28.80
2022-12-09T22:31:35.340Z,27.70
2022-12-09T22:34:06.553Z,38.35
2022-12-09T22:36:36.817Z,31.05
2022-12-09T22:39:07.802Z,29.40
2022-12-09T22:41:35.930Z,25.75
2022-12-09T22:44:04.731Z,25.92
2022-12-09T22:46:34.731Z,30.77
2022-12-09T22:49:04.869Z,30.05
2022-12-09T22:51:35.368Z,28.08
2022-12-09T22:54:05.952Z,28.50
2022-12-09T22:56:34.213Z,27.45
2022-12-09T22:59:02.024Z,28.95
2022-12-09T23:01:32.885Z,29.52
2022-12-09T23:04:01.569Z,31.02
2022-12-09T23:06:30.856Z,30.42
2022-12-09T23:08:58.955Z,29.10
2022-12-09T23:11:28.409Z,30.27
2022-12-09T23:13:56.464Z,31.38
2022-12-09T23:16:26.577Z,28.40
2022-12-09T23:18:56.715Z,33.75
2022-12-09T23:21:30.502Z,32.28
2022-12-09T23:24:01.160Z,33.58
2022-12-09T23:26:31.707Z,32.75
2022-12-09T23:29:01.911Z,31.63
2022-12-09T23:31:32.480Z,35.60
2022-12-09T23:34:01.310Z,34.30
2022-12-09T23:36:32.512Z,30.25
2022-12-09T23:39:01.908Z,32.05
2022-12-09T23:41:30.363Z,33.70
2022-12-09T23:43:58.417Z,32.70
2022-12-09T23:46:28.076Z,34.58
2022-12-09T23:48:56.351Z,31.48
2022-12-09T23:51:29.729Z,33.65
2022-12-09T23:54:00.192Z,33.08
2022-12-09T23:56:29.843Z,35.78
2022-12-09T23:58:59.901Z,34.97
